Time;durP1;ratioP1;P1;durP2;ratioP2;P2;SDS_P1;SDS_P2;PMS_P1;PMS_P2;Temp;Humidity;BMP_temperature;BMP_pressure;BME280_temperature;BME280_humidity;BME280_pressure;Samples;Min_cycle;Max_cycle;Signal;HPM_P1;HPM_P2
2021/01/29 00:01:26;;;;;;;5.30;3.80;;;;;;;-4.76;71.37;91507.56;1834385;78;21171;-72
2021/01/29 00:03:54;;;;;;;4.57;3.83;;;;;;;-4.76;72.06;91504.91;1833241;78;21168;-75
2021/01/29 00:06:21;;;;;;;5.97;3.60;;;;;;;-4.77;71.37;91510.02;1833143;78;21187;-79
2021/01/29 00:08:49;;;;;;;5.43;3.33;;;;;;;-4.77;71.47;91515.32;1833777;77;22276;-78
2021/01/29 00:11:16;;;;;;;5.87;4.50;;;;;;;-4.74;71.50;91507.20;1819024;78;21606;-75
2021/01/29 00:13:44;;;;;;;5.57;3.40;;;;;;;-4.72;71.70;91507.08;1824628;77;21156;-74
2021/01/29 00:16:11;;;;;;;5.87;4.07;;;;;;;-4.73;71.56;91485.66;1835149;78;21574;-74
2021/01/29 00:18:39;;;;;;;6.43;4.20;;;;;;;-4.71;71.74;91498.56;1835546;78;21503;-75
2021/01/29 00:21:07;;;;;;;6.90;4.27;;;;;;;-4.71;71.55;91496.67;1835703;78;22583;-78
2021/01/29 00:23:35;;;;;;;6.43;4.07;;;;;;;-4.69;71.61;91493.70;1835331;78;21172;-73
2021/01/29 00:26:06;;;;;;;5.33;3.80;;;;;;;-4.67;71.58;91487.47;1835951;77;21081;-79
2021/01/29 00:28:34;;;;;;;5.80;4.00;;;;;;;-4.66;71.75;91487.14;1835534;78;21203;-77
2021/01/29 00:31:02;;;;;;;6.90;4.27;;;;;;;-4.63;71.73;91493.61;1834913;78;21195;-82
2021/01/29 00:33:29;;;;;;;6.67;4.40;;;;;;;-4.63;72.32;91488.31;1834259;78;22259;-74
2021/01/29 00:35:57;;;;;;;6.67;4.30;;;;;;;-4.63;71.39;91488.31;1834718;78;21745;-76
2021/01/29 00:38:25;;;;;;;5.37;4.40;;;;;;;-4.62;71.75;91492.52;1834748;78;21143;-76
2021/01/29 00:40:53;;;;;;;6.63;4.40;;;;;;;-4.61;71.83;91490.63;1834342;78;21172;-77
2021/01/29 00:43:21;;;;;;;5.10;3.47;;;;;;;-4.61;71.85;91486.09;1834428;78;21622;-80
2021/01/29 00:45:48;;;;;;;6.00;4.00;;;;;;;-4.58;72.31;91480.66;1834364;78;21331;-79
2021/01/29 00:48:16;;;;;;;6.17;4.57;;;;;;;-4.56;71.99;91484.48;1834342;78;21180;-77
2021/01/29 00:50:44;;;;;;;5.67;4.40;;;;;;;-4.54;72.18;91473.54;1833701;78;21200;-74
2021/01/29 00:53:14;;;;;;;5.50;4.23;;;;;;;-4.53;72.80;91477.72;1833275;77;21666;-77
2021/01/29 00:55:41;;;;;;;5.70;4.10;;;;;;;-4.56;72.64;91469.89;1807148;78;21489;-82
2021/01/29 00:58:11;;;;;;;5.07;3.57;;;;;;;-4.53;72.55;91463.13;1833261;78;21611;-75
2021/01/29 01:00:58;;;;;;;4.30;3.50;;;;;;;-4.52;72.04;91460.68;1829067;77;21184;-75
2021/01/29 01:03:28;;;;;;;5.63;4.00;;;;;;;-4.49;72.56;91460.75;1835233;78;21337;-75
2021/01/29 01:05:56;;;;;;;9.23;4.27;;;;;;;-4.48;73.10;91431.77;1835144;78;21032;-80
2021/01/29 01:08:28;;;;;;;5.60;4.10;;;;;;;-4.49;73.24;91436.88;1832908;78;21171;-79
2021/01/29 01:10:59;;;;;;;5.17;4.07;;;;;;;-4.49;73.02;91440.86;1834731;78;21427;-79
2021/01/29 01:13:44;;;;;;;5.87;4.33;;;;;;;-4.48;73.38;91444.27;1830890;78;22821;-73
2021/01/29 01:16:14;;;;;;;6.40;3.90;;;;;;;-4.48;73.57;91419.06;1768374;79;21463;-79
2021/01/29 01:18:43;;;;;;;7.80;3.70;;;;;;;-4.46;73.57;91419.50;1797678;76;21596;-75
2021/01/29 01:21:18;;;;;;;5.50;4.00;;;;;;;-4.46;73.85;91418.17;1870772;76;21138;-78
2021/01/29 01:23:46;;;;;;;6.57;4.17;;;;;;;-4.44;73.79;91419.91;1835424;78;22404;-78
2021/01/29 01:26:14;;;;;;;5.63;4.03;;;;;;;-4.43;73.71;91422.78;1866418;76;21593;-85
2021/01/29 01:29:00;;;;;;;4.60;3.90;;;;;;;-4.41;73.39;91417.88;1831085;76;21136;-80
2021/01/29 01:31:28;;;;;;;5.63;3.93;;;;;;;-4.41;73.83;91413.90;1808665;79;22276;-80
2021/01/29 01:34:15;;;;;;;6.83;4.30;;;;;;;-4.40;73.38;91394.20;1794284;79;21153;-77
2021/01/29 01:36:44;;;;;;;6.83;4.00;;;;;;;-4.36;73.14;91404.88;1783450;78;21898;-73
2021/01/29 01:39:14;;;;;;;6.13;4.27;;;;;;;-4.38;73.31;91410.55;1832393;78;21579;-77
2021/01/29 01:41:42;;;;;;;5.90;4.27;;;;;;;-4.36;73.29;91400.37;1835138;77;21749;-78
2021/01/29 01:44:33;;;;;;;5.53;4.03;;;;;;;-4.35;73.21;91399.24;1808352;78;21598;-78
2021/01/29 01:47:26;;;;;;;7.40;4.20;;;;;;;-4.32;73.13;91397.78;1842021;77;23079;-80
2021/01/29 01:50:19;;;;;;;8.08;4.08;;;;;;;-4.35;73.26;91391.84;1732526;81;21630;-78
2021/01/29 01:52:47;;;;;;;7.17;3.90;;;;;;;-4.35;72.93;91389.95;1784148;79;21430;-76
2021/01/29 01:55:22;;;;;;;5.63;4.30;;;;;;;-4.34;73.16;91392.81;1768275;79;21391;-79
2021/01/29 01:57:55;;;;;;;7.17;4.10;;;;;;;-4.35;73.36;91384.65;1824962;77;21129;-83
2021/01/29 02:00:28;;;;;;;5.67;3.60;;;;;;;-4.35;73.57;91383.32;1841508;77;21635;-75
2021/01/29 02:03:03;;;;;;;8.27;4.43;;;;;;;-4.37;74.08;91400.14;1831926;77;21157;-76
2021/01/29 02:05:39;;;;;;;4.70;3.70;;;;;;;-4.39;74.60;91377.19;1837883;77;21257;-79
2021/01/29 02:08:13;;;;;;;6.23;4.40;;;;;;;-4.42;74.96;91381.30;1814447;77;21172;-74
2021/01/29 02:10:44;;;;;;;5.37;3.90;;;;;;;-4.42;75.17;91395.89;1816871;77;21434;-78
2021/01/29 02:13:14;;;;;;;6.03;4.40;;;;;;;-4.43;75.24;91389.63;1852768;76;21265;-82
2021/01/29 02:15:46;;;;;;;5.60;3.30;;;;;;;-4.43;75.61;91385.64;1889890;75;21137;-81
2021/01/29 02:18:47;;;;;;;6.33;3.60;;;;;;;-4.45;75.40;91373.27;1845378;76;22307;-77
2021/01/29 02:21:31;;;;;;;9.17;4.33;;;;;;;-4.45;76.19;91398.48;1867290;76;21508;-77
2021/01/29 02:24:40;;;;;;;7.17;4.07;;;;;;;-4.46;76.28;91383.13;1857703;77;21078;-79
2021/01/29 02:27:43;;;;;;;4.77;3.53;;;;;;;-4.47;76.02;91376.29;1842224;77;21621;-83
2021/01/29 02:30:56;;;;;;;5.87;4.33;;;;;;;-4.46;76.09;91391.64;1833347;77;21137;-79
2021/01/29 02:33:47;;;;;;;4.87;3.53;;;;;;;-4.47;76.35;91369.66;1853007;77;21928;-78
2021/01/29 02:36:56;;;;;;;4.60;3.40;;;;;;;-4.44;76.44;91362.86;1837785;76;21374;-77
2021/01/29 02:39:38;;;;;;;4.43;3.67;;;;;;;-4.44;76.65;91365.52;1831955;75;21050;-84
2021/01/29 02:42:12;;;;;;;4.57;3.23;;;;;;;-4.44;76.60;91362.86;1880066;75;21714;-79
2021/01/29 02:44:52;;;;;;;4.90;3.40;;;;;;;-4.43;76.21;91363.09;1868533;76;21106;-79
2021/01/29 02:47:28;;;;;;;6.77;3.30;;;;;;;-4.41;76.25;91355.53;1914624;74;21627;-77
2021/01/29 02:50:22;;;;;;;4.93;3.20;;;;;;;-4.39;75.92;91354.62;1875094;75;21058;-79
2021/01/29 02:53:12;;;;;;;3.57;2.77;;;;;;;-4.36;75.56;91348.63;1846873;76;21173;-72
2021/01/29 02:56:22;;;;;;;4.63;3.23;;;;;;;-4.34;75.09;91350.35;1837568;77;21737;-74
2021/01/29 02:59:44;;;;;;;4.53;3.07;;;;;;;-4.31;75.12;91335.05;1820046;76;21160;-82
2021/01/29 03:02:27;;;;;;;3.40;2.90;;;;;;;-4.30;75.19;91327.86;1812501;76;21361;-77
2021/01/29 03:05:09;;;;;;;4.20;2.60;;;;;;;-4.28;74.76;91334.36;1831635;76;21164;-80
2021/01/29 03:08:19;;;;;;;3.07;2.77;;;;;;;-4.26;74.69;91334.75;1872147;75;21195;-77
2021/01/29 03:11:19;;;;;;;3.03;2.73;;;;;;;-4.26;74.72;91328.12;1867773;76;21178;-77
2021/01/29 03:14:17;;;;;;;3.73;2.57;;;;;;;-4.24;74.78;91328.55;1858388;76;21175;-78
2021/01/29 03:17:12;;;;;;;3.20;2.80;;;;;;;-4.23;74.93;91330.64;1883448;75;21343;-75
2021/01/29 03:20:08;;;;;;;4.67;2.90;;;;;;;-4.22;74.80;91325.52;1837226;76;21603;-79
2021/01/29 03:23:00;;;;;;;3.17;2.23;;;;;;;-4.20;74.38;91320.64;1854993;76;21574;-77
2021/01/29 03:25:50;;;;;;;3.57;2.73;;;;;;;-4.20;74.23;91301.50;1818337;78;21537;-77
2021/01/29 03:28:40;;;;;;;3.40;2.83;;;;;;;-4.19;74.12;91314.20;1814101;78;21411;-77
2021/01/29 03:31:26;;;;;;;3.70;2.40;;;;;;;-4.18;74.30;91291.84;1842442;77;21366;-78
2021/01/29 03:34:31;;;;;;;3.03;2.47;;;;;;;-4.18;74.17;91323.12;1850918;77;21537;-78
2021/01/29 03:37:38;;;;;;;3.58;2.62;;;;;;;-4.16;73.67;91310.84;1839999;77;21142;-78
2021/01/29 03:40:25;;;;;;;2.50;2.30;;;;;;;-4.15;73.86;91295.13;1843893;77;21191;-80
2021/01/29 03:43:32;;;;;;;3.00;2.70;;;;;;;-4.16;73.37;91297.58;1847649;77;21157;-76
2021/01/29 03:46:37;;;;;;;3.43;2.50;;;;;;;-4.13;73.41;91302.75;1807124;75;21516;-83
2021/01/29 03:49:53;;;;;;;2.87;2.47;;;;;;;-4.13;73.55;91300.86;1894571;75;21189;-80
2021/01/29 03:53:11;;;;;;;3.35;2.33;;;;;;;-4.12;73.28;91298.40;1861002;76;21133;-81
2021/01/29 03:55:46;;;;;;;3.33;2.67;;;;;;;-4.12;73.19;91294.98;1823803;75;21042;-76
2021/01/29 03:59:05;;;;;;;2.90;2.50;;;;;;;-4.11;73.60;91307.13;1888138;75;21141;-76
2021/01/29 04:02:24;;;;;;;2.60;2.40;;;;;;;-4.13;73.66;91315.45;1861531;76;21184;-80
2021/01/29 04:05:23;;;;;;;3.07;2.47;;;;;;;-4.15;73.73;91307.83;1839411;77;22014;-80
2021/01/29 04:08:12;;;;;;;3.57;2.60;;;;;;;-4.16;73.71;91304.98;1799153;78;21192;-77
2021/01/29 04:10:59;;;;;;;2.80;2.43;;;;;;;-4.15;73.76;91309.16;1841434;77;21082;-80
2021/01/29 04:13:41;;;;;;;3.47;2.73;;;;;;;-4.15;73.96;91307.06;1838233;75;21103;-80
2021/01/29 04:16:15;;;;;;;3.83;2.80;;;;;;;-4.15;73.72;91301.76;1856008;76;21696;-81
2021/01/29 04:18:50;;;;;;;3.17;2.60;;;;;;;-4.17;74.12;91304.78;1833692;75;21181;-75
2021/01/29 04:21:42;;;;;;;3.20;2.70;;;;;;;-4.17;74.08;91288.86;1876269;75;21015;-74
2021/01/29 04:24:13;;;;;;;3.77;2.53;;;;;;;-4.18;74.11;91306.44;1705002;83;21516;-75
2021/01/29 04:27:00;;;;;;;2.80;2.40;;;;;;;-4.19;74.34;91305.68;1761798;81;21155;-76
2021/01/29 04:29:40;;;;;;;3.50;2.87;;;;;;;-4.19;74.68;91316.30;1795650;78;21176;-73
2021/01/29 04:32:13;;;;;;;3.10;2.60;;;;;;;-4.21;74.63;91297.32;1803789;78;21569;-73
2021/01/29 04:34:44;;;;;;;3.17;2.40;;;;;;;-4.22;74.69;91303.73;1789219;79;21148;-73
2021/01/29 04:37:17;;;;;;;3.23;2.57;;;;;;;-4.21;74.67;91299.97;1816419;77;21730;-73
2021/01/29 04:39:48;;;;;;;2.73;2.30;;;;;;;-4.22;74.46;91279.84;1862196;76;21139;-73
2021/01/29 04:42:37;;;;;;;2.90;2.33;;;;;;;-4.20;74.61;91296.76;1826781;77;22643;-75
2021/01/29 04:45:40;;;;;;;2.80;2.50;;;;;;;-4.19;74.68;91304.35;1862144;77;21596;-73
2021/01/29 04:48:35;;;;;;;2.93;2.63;;;;;;;-4.15;74.93;91312.37;1826267;78;21163;-74
2021/01/29 04:51:31;;;;;;;5.42;4.00;;;;;;;-4.13;74.73;91321.33;1812090;78;21222;-76
2021/01/29 04:54:40;;;;;;;3.20;2.10;;;;;;;-4.12;74.73;91305.03;1839025;78;21191;-78
2021/01/29 04:57:45;;;;;;;2.40;2.20;;;;;;;-4.12;74.80;91298.96;1839355;77;21213;-73
2021/01/29 05:00:49;;;;;;;3.23;2.87;;;;;;;-4.11;74.68;91313.76;1724586;83;21214;-75
2021/01/29 05:03:47;;;;;;;2.77;2.03;;;;;;;-4.10;74.94;91308.09;1787628;79;21146;-73
2021/01/29 05:06:49;;;;;;;2.80;2.37;;;;;;;-4.09;74.78;91301.67;1789855;80;21161;-74
2021/01/29 05:09:50;;;;;;;3.37;2.17;;;;;;;-4.08;74.56;91315.71;1748029;80;21180;-77
2021/01/29 05:12:48;;;;;;;2.70;2.20;;;;;;;-4.07;75.03;91300.75;1786350;80;21266;-76
2021/01/29 05:15:52;;;;;;;2.52;2.33;;;;;;;-4.08;75.54;91301.88;1845817;76;21182;-74
2021/01/29 05:18:53;;;;;;;4.30;2.60;;;;;;;-4.07;75.63;91310.59;1844720;77;21539;-76
2021/01/29 05:21:38;;;;;;;2.73;2.43;;;;;;;-4.11;75.43;91288.55;1845304;76;21067;-75
2021/01/29 05:24:38;;;;;;;3.10;2.55;;;;;;;-4.12;75.52;91289.67;1844364;76;21793;-74
2021/01/29 05:27:45;;;;;;;2.90;2.53;;;;;;;-4.15;75.59;91291.91;1846878;77;21564;-75
2021/01/29 05:30:54;;;;;;;3.97;2.93;;;;;;;-4.15;75.70;91282.61;1843302;77;21179;-73
2021/01/29 05:33:35;;;;;;;3.20;2.33;;;;;;;-4.15;75.69;91295.88;1844100;76;21680;-75
2021/01/29 05:36:24;;;;;;;3.87;2.77;;;;;;;-4.11;75.54;91299.16;1826469;77;21704;-74
2021/01/29 05:39:05;;;;;;;2.80;2.37;;;;;;;-4.09;75.60;91303.00;1827414;77;21573;-75
2021/01/29 05:41:44;;;;;;;2.90;2.13;;;;;;;-4.07;75.63;91306.05;1828867;78;21787;-73
2021/01/29 05:44:41;;;;;;;3.73;2.77;;;;;;;-4.05;75.25;91310.45;1818056;77;21238;-75
2021/01/29 05:47:23;;;;;;;3.17;1.93;;;;;;;-4.01;75.29;91325.88;1852996;77;21155;-75
2021/01/29 05:50:06;;;;;;;3.03;2.30;;;;;;;-3.96;74.81;91318.94;1853854;77;21065;-74
2021/01/29 05:52:56;;;;;;;2.43;2.20;;;;;;;-3.89;74.53;91318.28;1853694;77;21196;-75
2021/01/29 05:55:44;;;;;;;3.93;2.53;;;;;;;-3.85;74.45;91324.41;1853730;77;21562;-73
2021/01/29 05:58:49;;;;;;;2.87;2.27;;;;;;;-3.81;74.36;91320.48;1853651;77;21175;-74
2021/01/29 06:01:34;;;;;;;2.53;2.23;;;;;;;-3.79;74.26;91328.31;1853304;77;21605;-75
2021/01/29 06:04:09;;;;;;;;;;;;;;;-3.77;74.45;91335.91;1854180;77;21166;-77
2021/01/29 06:07:10;;;;;;;3.17;2.40;;;;;;;-3.75;74.06;91338.98;1851695;77;20533;-73
2021/01/29 06:10:11;;;;;;;3.57;2.70;;;;;;;-3.71;74.04;91347.21;1785066;80;21574;-72
2021/01/29 06:13:02;;;;;;;3.17;2.70;;;;;;;-3.67;74.17;91356.56;1853690;77;21115;-72
2021/01/29 06:16:01;;;;;;;2.00;1.80;;;;;;;-3.65;74.42;91348.98;1852347;77;21155;-73
2021/01/29 06:19:00;;;;;;;3.63;2.77;;;;;;;-3.60;74.50;91354.02;1852136;77;21170;-74
2021/01/29 06:22:11;;;;;;;4.37;3.37;;;;;;;-3.58;75.07;91351.75;1850052;77;21171;-75
2021/01/29 06:25:18;;;;;;;3.87;2.80;;;;;;;-3.58;75.19;91348.33;1851178;77;21190;-76
2021/01/29 06:28:30;;;;;;;5.13;3.10;;;;;;;-3.58;76.15;91340.36;1784221;80;21220;-74
2021/01/29 06:31:20;;;;;;;3.00;2.60;;;;;;;-3.59;76.08;91338.27;1738520;81;21156;-74
2021/01/29 06:34:21;;;;;;;2.60;2.30;;;;;;;-3.57;76.50;91351.98;1821473;78;21279;-75
2021/01/29 06:36:58;;;;;;;3.30;2.50;;;;;;;-3.54;76.10;91355.80;1820659;78;21103;-74
2021/01/29 06:39:46;;;;;;;3.37;2.77;;;;;;;-3.52;76.27;91354.32;1821775;77;21368;-73
2021/01/29 06:42:25;;;;;;;2.57;2.37;;;;;;;-3.49;76.47;91360.82;1769047;78;21197;-74
2021/01/29 06:45:06;;;;;;;4.43;3.53;;;;;;;-3.48;75.84;91342.41;1753911;80;21150;-73
2021/01/29 06:48:01;;;;;;;2.80;2.60;;;;;;;-3.47;75.83;91348.69;1754800;80;21118;-75
2021/01/29 06:50:34;;;;;;;3.40;2.40;;;;;;;-3.45;75.87;91348.34;1754055;80;21194;-73
2021/01/29 06:53:25;;;;;;;3.47;2.47;;;;;;;-3.43;75.74;91327.48;1759306;80;21809;-75
2021/01/29 06:56:24;;;;;;;3.47;2.63;;;;;;;-3.39;75.58;91328.30;1814266;78;22693;-80
2021/01/29 06:59:31;;;;;;;2.83;2.37;;;;;;;-3.40;75.03;91328.09;1758576;80;21209;-79
2021/01/29 07:02:32;;;;;;;3.70;2.60;;;;;;;-3.35;75.14;91335.75;1728683;82;21297;-78
2021/01/29 07:05:14;;;;;;;4.23;1.97;;;;;;;-3.32;74.72;91326.30;1754157;81;21182;-81
2021/01/29 07:08:18;;;;;;;2.20;1.93;;;;;;;-3.30;74.11;91319.52;1828019;77;21512;-75
2021/01/29 07:11:21;;;;;;;2.87;2.60;;;;;;;-3.22;73.45;91324.36;1787797;78;21198;-83
2021/01/29 07:14:13;;;;;;;2.67;2.30;;;;;;;-3.20;73.16;91324.21;1734733;81;21162;-74
2021/01/29 07:17:07;;;;;;;2.73;2.03;;;;;;;-3.18;73.47;91331.81;1814926;78;21387;-77
2021/01/29 07:20:12;;;;;;;3.27;2.17;;;;;;;-3.16;73.58;91330.88;1789746;79;21640;-74
2021/01/29 07:23:05;;;;;;;2.60;2.07;;;;;;;-3.14;72.65;91322.55;1764074;80;21193;-76
2021/01/29 07:25:40;;;;;;;2.17;1.97;;;;;;;-3.12;72.87;91334.91;1782122;77;21212;-74
2021/01/29 07:28:28;;;;;;;2.83;1.93;;;;;;;-3.10;72.45;91323.36;1795132;79;21183;-72
2021/01/29 07:31:10;;;;;;;2.50;2.13;;;;;;;-3.06;72.48;91330.25;1792072;77;22248;-74
2021/01/29 07:33:53;;;;;;;2.57;2.00;;;;;;;-3.02;72.00;91315.11;1740863;79;21301;-75
2021/01/29 07:36:51;;;;;;;2.40;1.90;;;;;;;-2.95;72.20;91329.06;1732756;81;21165;-77
2021/01/29 07:39:48;;;;;;;2.10;1.83;;;;;;;-2.87;71.51;91335.23;1723845;80;21504;-75
2021/01/29 07:42:33;;;;;;;2.07;1.87;;;;;;;-2.82;70.67;91334.36;1778064;80;21187;-74
2021/01/29 07:45:18;;;;;;;4.47;2.90;;;;;;;-2.75;70.70;91329.09;1748958;80;21482;-72
2021/01/29 07:47:49;;;;;;;2.67;2.17;;;;;;;-2.72;70.62;91329.70;1736214;80;21470;-72
2021/01/29 07:50:45;;;;;;;3.23;2.50;;;;;;;-2.70;70.58;91336.77;1827494;78;21172;-74
2021/01/29 07:53:40;;;;;;;4.33;2.55;;;;;;;-2.64;70.92;91325.80;1788022;77;21552;-75
2021/01/29 07:56:41;;;;;;;;;;;;;;;-2.62;70.61;91333.63;1789734;79;21174;-74
2021/01/29 07:59:37;;;;;;;5.07;2.70;;;;;;;-2.61;70.86;91329.83;1665217;81;21352;-82
2021/01/29 08:02:25;;;;;;;2.23;2.03;;;;;;;-2.61;70.89;91337.81;1741672;81;21674;-76
2021/01/29 08:04:55;;;;;;;2.63;2.00;;;;;;;-2.60;70.85;91344.66;1743800;82;21697;-75
2021/01/29 08:07:34;;;;;;;2.67;2.20;;;;;;;-2.57;71.24;91347.92;1715265;83;21104;-75
2021/01/29 08:10:06;;;;;;;2.53;2.23;;;;;;;-2.52;71.15;91350.28;1779374;80;21189;-77
2021/01/29 08:12:38;;;;;;;2.43;2.07;;;;;;;-2.48;71.28;91355.64;1746774;80;21336;-82
2021/01/29 08:15:26;;;;;;;2.63;2.13;;;;;;;-2.47;71.57;91349.95;1733004;82;21215;-80
2021/01/29 08:18:20;;;;;;;2.23;1.93;;;;;;;-2.45;71.53;91339.69;1743917;81;21215;-85
2021/01/29 08:21:15;;;;;;;2.20;2.00;;;;;;;-2.39;71.59;91354.78;1743780;82;21215;-78
2021/01/29 08:24:21;;;;;;;2.00;1.80;;;;;;;-2.32;70.70;91336.79;1693762;81;21211;-78
2021/01/29 08:27:28;;;;;;;2.63;2.10;;;;;;;-2.26;70.69;91337.44;1742730;81;21507;-78
2021/01/29 08:30:39;;;;;;;2.30;1.80;;;;;;;-2.18;70.81;91334.81;1742799;82;21546;-79
2021/01/29 08:33:38;;;;;;;2.80;2.20;;;;;;;-2.16;70.56;91343.22;1680342;82;21187;-80
2021/01/29 08:36:18;;;;;;;3.00;2.67;;;;;;;-2.20;70.71;91349.84;1743036;82;21215;-86
2021/01/29 08:39:19;;;;;;;2.70;2.17;;;;;;;-2.23;70.74;91355.89;1719743;82;21227;-82
2021/01/29 08:42:08;;;;;;;2.30;2.03;;;;;;;-2.27;70.97;91363.84;1742063;81;21722;-81
2021/01/29 08:44:56;;;;;;;3.27;2.87;;;;;;;-2.27;71.38;91363.08;1742765;81;21211;-78
2021/01/29 08:48:01;;;;;;;3.53;2.30;;;;;;;-2.26;71.58;91357.40;1742889;81;21224;-76
2021/01/29 08:50:41;;;;;;;3.25;2.40;;;;;;;-2.24;71.87;91363.11;1743676;81;21497;-75
2021/01/29 08:53:15;;;;;;;2.63;2.17;;;;;;;-2.17;72.00;91365.66;1743650;82;21183;-78
2021/01/29 08:56:18;;;;;;;2.97;2.63;;;;;;;-2.10;72.01;91354.50;1751810;81;21782;-77
2021/01/29 08:59:03;;;;;;;3.00;2.27;;;;;;;-2.00;72.30;91367.70;1794790;78;21562;-78
2021/01/29 09:01:55;;;;;;;4.00;3.00;;;;;;;-1.93;71.77;91357.69;1785247;78;21281;-73
2021/01/29 09:04:37;;;;;;;3.10;2.80;;;;;;;-1.84;71.39;91366.92;1757249;80;21189;-78
2021/01/29 09:07:07;;;;;;;3.97;2.90;;;;;;;-1.84;71.33;91362.92;1751707;81;21180;-78
2021/01/29 09:09:36;;;;;;;3.85;2.90;;;;;;;-1.84;71.73;91352.27;1727591;82;21634;-75
2021/01/29 09:12:06;;;;;;;8.70;6.87;;;;;;;-1.85;70.87;91348.63;1738282;81;21180;-75
2021/01/29 09:14:41;;;;;;;4.00;3.07;;;;;;;-1.86;71.35;91337.78;1720147;81;21183;-74
2021/01/29 09:17:15;;;;;;;3.95;2.90;;;;;;;-1.86;71.60;91351.09;1767114;81;21183;-77
2021/01/29 09:19:44;;;;;;;;;;;;;;;-1.84;71.58;91344.28;1769874;80;21230;-75
2021/01/29 09:22:23;;;;;;;13.10;7.37;;;;;;;-1.87;70.91;91334.35;1756620;81;21444;-75
2021/01/29 09:25:20;;;;;;;6.80;3.80;;;;;;;-1.92;70.78;91330.67;1770952;80;21100;-76
2021/01/29 09:28:10;;;;;;;14.60;7.37;;;;;;;-1.91;71.04;91315.48;1760678;80;21172;-77
2021/01/29 09:31:00;;;;;;;6.47;3.98;;;;;;;-1.85;71.00;91315.32;1768060;80;21159;-74
2021/01/29 09:34:19;;;;;;;6.03;4.05;;;;;;;-1.80;70.72;91319.76;1751290;81;21163;-78
2021/01/29 09:36:53;;;;;;;3.43;2.83;;;;;;;-1.76;70.83;91334.44;1700025;80;21710;-79
2021/01/29 09:39:27;;;;;;;9.83;6.27;;;;;;;-1.78;70.15;91329.47;1779674;80;21219;-77
2021/01/29 09:42:01;;;;;;;6.03;3.62;;;;;;;-1.72;70.08;91331.23;1778328;80;21201;-77
2021/01/29 09:44:45;;;;;;;;;;;;;;;-1.59;71.32;91334.37;1754605;81;21661;-76
2021/01/29 09:47:19;;;;;;;3.27;2.70;;;;;;;-1.38;70.62;91337.77;1782155;80;20269;-81
2021/01/29 09:49:46;;;;;;;2.75;2.55;;;;;;;-1.25;69.52;91341.06;1768327;80;22625;-77
2021/01/29 09:52:46;;;;;;;2.80;2.35;;;;;;;-1.22;69.79;91344.91;1766702;81;21223;-78
2021/01/29 09:55:22;;;;;;;3.33;3.02;;;;;;;-1.28;68.44;91353.84;1782523;80;21498;-77
2021/01/29 09:58:17;;;;;;;4.17;3.30;;;;;;;-1.49;69.33;91351.02;1779910;79;21214;-74
2021/01/29 10:00:46;;;;;;;3.45;2.95;;;;;;;-1.62;70.50;91345.77;1780382;80;21033;-75
2021/01/29 10:03:22;;;;;;;2.97;2.50;;;;;;;-1.78;70.57;91342.78;1788128;80;21144;-77
2021/01/29 10:06:06;;;;;;;2.70;2.35;;;;;;;-1.90;71.15;91330.32;1786661;79;21195;-79
2021/01/29 10:08:44;;;;;;;2.55;2.35;;;;;;;-2.06;72.90;91325.25;1782395;80;21143;-81
2021/01/29 10:11:35;;;;;;;6.60;4.03;;;;;;;-2.06;72.90;91325.25;1782382;80;21219;-81
2021/01/29 10:14:20;;;;;;;3.13;2.83;;;;;;;-2.14;72.12;91329.74;1781771;80;21753;-80
2021/01/29 10:16:56;;;;;;;3.10;2.63;;;;;;;-2.22;72.87;91318.80;1757278;80;21697;-79
2021/01/29 10:19:39;;;;;;;3.33;3.03;;;;;;;-2.26;73.21;91325.45;1781748;80;21175;-78
2021/01/29 10:22:19;;;;;;;4.23;2.80;;;;;;;-2.31;73.24;91311.69;1857439;77;21198;-79
2021/01/29 10:25:25;;;;;;;2.10;1.90;;;;;;;-2.33;73.39;91316.06;1799074;77;21194;-76
2021/01/29 10:27:57;;;;;;;;;;;;;;;-2.34;73.47;91299.11;1761489;80;21171;-80
2021/01/29 10:30:50;;;;;;;2.20;1.93;;;;;;;-2.33;73.72;91321.39;1804107;77;21190;-82
2021/01/29 10:33:28;;;;;;;2.53;2.33;;;;;;;-2.30;73.32;91327.86;1800105;78;21682;-79
2021/01/29 10:36:10;;;;;;;3.53;3.10;;;;;;;-2.33;73.75;91312.61;1805682;78;21160;-80
2021/01/29 10:39:01;;;;;;;2.53;2.30;;;;;;;-2.31;73.92;91313.02;1836965;77;21185;-78
2021/01/29 10:41:48;;;;;;;3.90;2.87;;;;;;;-2.29;74.01;91302.22;1836727;77;21752;-80
2021/01/29 10:44:19;;;;;;;2.93;2.60;;;;;;;-2.29;74.02;91292.91;1819990;77;22534;-81
2021/01/29 10:46:50;;;;;;;3.12;2.85;;;;;;;-2.27;74.10;91297.84;1822021;78;21190;-81
2021/01/29 10:49:35;;;;;;;3.77;3.20;;;;;;;-2.28;74.27;91310.40;1757423;80;21176;-79
2021/01/29 10:52:40;;;;;;;6.53;5.00;;;;;;;-2.28;74.37;91309.06;1837154;77;21171;-79
2021/01/29 10:55:38;;;;;;;5.07;3.13;;;;;;;-2.27;75.07;91309.83;1819045;77;21182;-79
2021/01/29 10:58:42;;;;;;;5.00;4.00;;;;;;;-2.30;75.16;91296.67;1854984;75;22704;-90
2021/01/29 11:01:35;;;;;;;6.27;3.70;;;;;;;-2.38;75.71;91277.78;1789320;77;21682;-82
2021/01/29 11:04:22;;;;;;;4.30;3.27;;;;;;;-2.39;76.26;91288.23;1851662;76;21812;-82
2021/01/29 11:06:58;;;;;;;3.63;3.07;;;;;;;-2.37;76.39;91298.50;1853850;76;21237;-88
2021/01/29 11:09:36;;;;;;;4.67;3.47;;;;;;;-2.42;76.48;91302.27;1859322;76;21764;-82
2021/01/29 11:12:21;;;;;;;3.57;2.97;;;;;;;-2.43;76.22;91303.98;1829393;76;22176;-84
2021/01/29 11:15:15;;;;;;;4.00;2.93;;;;;;;-2.51;76.72;91301.81;1791698;76;21604;-81
2021/01/29 11:17:57;;;;;;;5.23;3.10;;;;;;;-2.62;76.43;91308.34;1859474;76;21126;-83
2021/01/29 11:20:33;;;;;;;4.07;2.43;;;;;;;-2.66;77.27;91304.13;1853232;76;21281;-87
2021/01/29 11:23:02;;;;;;;2.65;2.10;;;;;;;-2.69;76.87;91299.72;1864162;76;21899;-79
2021/01/29 11:25:37;;;;;;;3.47;3.07;;;;;;;-2.69;76.94;91313.59;1789264;80;22680;-80
2021/01/29 11:28:45;;;;;;;2.17;1.90;;;;;;;-2.66;76.68;91304.89;1803503;77;21605;-78
2021/01/29 11:32:03;;;;;;;2.73;2.37;;;;;;;-2.60;76.42;91311.39;1782271;77;21192;-79
2021/01/29 11:34:39;;;;;;;2.87;2.57;;;;;;;-2.54;75.01;91303.30;1849697;77;21597;-81
2021/01/29 11:37:13;;;;;;;3.20;2.60;;;;;;;-2.52;74.48;91307.70;1880989;75;21189;-75
2021/01/29 11:39:45;;;;;;;4.03;2.67;;;;;;;-2.53;75.02;91296.83;1867333;75;21350;-81
2021/01/29 11:42:33;;;;;;;2.80;2.07;;;;;;;-2.51;75.24;91307.89;1768409;78;21175;-77
2021/01/29 11:45:13;;;;;;;3.53;2.33;;;;;;;-2.49;74.61;91313.60;1799896;79;21207;-77
2021/01/29 11:47:58;;;;;;;5.33;2.57;;;;;;;-2.47;75.30;91294.05;1855130;75;21178;-77
2021/01/29 11:50:57;;;;;;;2.63;2.00;;;;;;;-2.47;74.82;91301.28;1886562;75;21661;-78
2021/01/29 11:53:39;;;;;;;2.17;1.47;;;;;;;-2.45;74.88;91296.34;1824063;75;21423;-79
2021/01/29 11:56:12;;;;;;;2.07;1.60;;;;;;;-2.45;74.62;91295.77;1894350;75;21197;-80
2021/01/29 11:59:03;;;;;;;2.30;2.00;;;;;;;-2.45;75.12;91292.34;1825293;78;21471;-79
2021/01/29 12:02:03;;;;;;;2.23;1.90;;;;;;;-2.43;75.83;91282.69;1880539;76;21040;-80
2021/01/29 12:04:51;;;;;;;3.43;2.30;;;;;;;-2.40;75.36;91273.97;1787175;80;21114;-75
2021/01/29 12:07:31;;;;;;;2.63;1.80;;;;;;;-2.40;75.64;91264.09;1783805;79;22225;-76
2021/01/29 12:10:18;;;;;;;1.77;1.43;;;;;;;-2.34;75.79;91269.26;1789861;80;21131;-73
2021/01/29 12:12:51;;;;;;;2.23;1.70;;;;;;;-2.32;74.83;91258.27;1783485;80;21164;-75
2021/01/29 12:15:42;;;;;;;1.67;1.57;;;;;;;-2.30;74.63;91266.63;1757072;80;21202;-74
2021/01/29 12:18:11;;;;;;;2.00;1.50;;;;;;;-2.27;74.65;91259.25;1751941;81;21102;-75
2021/01/29 12:20:42;;;;;;;3.63;2.03;;;;;;;-2.26;74.60;91265.55;1751242;81;21652;-73
2021/01/29 12:23:39;;;;;;;3.43;2.60;;;;;;;-2.24;75.06;91250.53;1774330;78;21138;-74
2021/01/29 12:26:30;;;;;;;2.20;2.00;;;;;;;-2.21;75.13;91261.78;1810904;77;21558;-75
2021/01/29 12:29:14;;;;;;;1.97;1.60;;;;;;;-2.20;74.84;91267.30;1781618;79;21534;-75
2021/01/29 12:32:06;;;;;;;3.33;2.20;;;;;;;-2.22;73.71;91254.36;1743198;80;21195;-73
2021/01/29 12:34:49;;;;;;;2.23;1.60;;;;;;;-2.22;74.51;91250.37;1726896;81;21385;-73
2021/01/29 12:37:26;;;;;;;1.77;1.67;;;;;;;-2.24;74.67;91249.20;1748618;81;21135;-73
2021/01/29 12:40:04;;;;;;;1.63;1.53;;;;;;;-2.25;74.18;91268.41;1784188;80;21187;-73
2021/01/29 12:43:07;;;;;;;2.43;1.63;;;;;;;-2.27;73.97;91264.00;1817623;78;21166;-74
2021/01/29 12:45:42;;;;;;;2.03;1.83;;;;;;;-2.25;74.34;91263.65;1792752;78;21178;-73
2021/01/29 12:48:34;;;;;;;2.13;1.63;;;;;;;-2.27;74.96;91266.66;1767989;80;21633;-75
2021/01/29 12:51:17;;;;;;;2.87;2.07;;;;;;;-2.26;74.39;91258.11;1787155;80;21219;-74
2021/01/29 12:54:23;;;;;;;2.50;2.07;;;;;;;-2.23;74.85;91263.46;1790556;78;21573;-73
2021/01/29 12:56:56;;;;;;;1.90;1.70;;;;;;;-2.22;74.27;91249.58;1790660;79;21154;-75
2021/01/29 12:59:38;;;;;;;1.83;1.67;;;;;;;-2.22;74.39;91268.22;1741526;80;21175;-76
2021/01/29 13:02:47;;;;;;;1.90;1.70;;;;;;;-2.21;74.84;91266.53;1712392;81;21490;-77